Time;durP1;ratioP1;P1;durP2;ratioP2;P2;SDS_P1;SDS_P2;PMS_P1;PMS_P2;Temp;Humidity;BMP_temperature;BMP_pressure;BME280_temperature;BME280_humidity;BME280_pressure;Samples;Min_cycle;Max_cycle;Signal;HPM_P1;HPM_P2
2022/10/14 00:00:16;;;;;;;20.30;9.10;;;;;;;9.05;75.98;100049.33;106079;1290;71834;-72
2022/10/14 00:03:24;;;;;;;16.90;7.40;;;;;;;8.98;76.31;100039.50;105997;1284;69272;-71
2022/10/14 00:06:21;;;;;;;16.60;7.50;;;;;;;8.95;76.53;100048.41;106048;1284;72713;-70
2022/10/14 00:09:09;;;;;;;19.10;8.20;;;;;;;8.91;77.05;100046.02;105888;1293;59323;-72
2022/10/14 00:11:56;;;;;;;17.20;8.70;;;;;;;8.89;76.97;100041.92;105976;1287;58776;-72
2022/10/14 00:14:44;;;;;;;15.50;7.40;;;;;;;8.88;77.26;100043.95;106070;1290;73189;-72
2022/10/14 00:17:32;;;;;;;19.20;8.70;;;;;;;8.86;77.67;100043.02;106077;1291;69010;-72
2022/10/14 00:20:20;;;;;;;16.20;7.60;;;;;;;8.84;77.29;100039.59;106058;1287;72595;-75
2022/10/14 00:23:08;;;;;;;21.60;9.60;;;;;;;8.82;77.62;100036.23;106064;1289;59227;-71
2022/10/14 00:25:56;;;;;;;17.90;8.50;;;;;;;8.79;77.47;100033.26;106071;1289;61152;-70
2022/10/14 00:28:46;;;;;;;20.60;8.40;;;;;;;8.76;77.75;100033.48;106087;1292;74042;-72
2022/10/14 00:31:35;;;;;;;19.40;7.90;;;;;;;8.72;78.15;100035.84;105920;1289;67686;-72
2022/10/14 00:34:22;;;;;;;21.70;9.80;;;;;;;8.69;78.34;100037.46;106063;1289;73710;-71
2022/10/14 00:37:10;;;;;;;20.50;9.30;;;;;;;8.68;78.04;100029.79;106078;1282;59230;-72
2022/10/14 00:39:58;;;;;;;18.90;8.20;;;;;;;8.68;78.26;100028.36;106054;1289;60342;-73
2022/10/14 00:42:48;;;;;;;16.70;8.70;;;;;;;8.70;78.69;100024.17;106055;1290;73819;-72
2022/10/14 00:45:35;;;;;;;22.90;9.00;;;;;;;8.72;78.59;100020.30;105938;1297;67497;-72
2022/10/14 00:48:25;;;;;;;21.90;9.50;;;;;;;8.74;78.82;100014.52;106082;1291;72694;-72
2022/10/14 00:51:14;;;;;;;21.60;10.00;;;;;;;8.75;78.59;100011.04;106064;1275;60460;-72
2022/10/14 00:54:03;;;;;;;21.20;9.50;;;;;;;8.77;78.72;100009.17;105969;1291;58874;-71
2022/10/14 00:56:51;;;;;;;20.50;10.20;;;;;;;8.78;78.62;100004.35;106080;1290;74170;-71
2022/10/14 00:59:40;;;;;;;23.50;9.40;;;;;;;8.77;78.43;100004.73;106064;1284;68913;-71
2022/10/14 01:02:28;;;;;;;20.60;9.70;;;;;;;8.77;78.56;100004.95;105940;1289;73022;-71
2022/10/14 01:05:19;;;;;;;21.10;9.80;;;;;;;8.74;78.67;100000.58;106074;1292;59560;-72
2022/10/14 01:08:34;;;;;;;21.50;10.20;;;;;;;8.72;78.83;100004.95;106095;1284;60261;-71
2022/10/14 01:11:53;;;;;;;20.80;9.00;;;;;;;8.71;79.08;100010.29;105961;1285;72892;-72
2022/10/14 01:15:16;;;;;;;23.70;9.60;;;;;;;8.69;79.56;100006.00;105964;1290;68307;-72
2022/10/14 01:18:37;;;;;;;19.50;9.20;;;;;;;8.66;79.64;100001.95;105944;1284;72355;-71
2022/10/14 01:21:51;;;;;;;22.00;10.00;;;;;;;8.64;79.68;100000.34;105971;1284;59341;-72
2022/10/14 01:25:06;;;;;;;19.80;9.90;;;;;;;8.64;79.52;99990.98;105955;1291;60216;-71
2022/10/14 01:28:26;;;;;;;18.40;9.70;;;;;;;8.64;79.92;99988.52;106074;1292;74063;-72
2022/10/14 01:31:22;;;;;;;21.20;10.00;;;;;;;8.61;79.82;99984.27;105472;1296;68759;-72
2022/10/14 01:34:13;;;;;;;20.50;9.40;;;;;;;8.58;79.94;99980.94;105371;1289;72624;-71
2022/10/14 01:37:12;;;;;;;26.00;10.80;;;;;;;8.55;80.21;99981.88;104706;1296;1002058;-72
2022/10/14 01:40:10;;;;;;;23.20;10.60;;;;;;;8.52;80.37;99979.27;105263;1291;61331;-71
2022/10/14 01:43:01;;;;;;;19.70;9.70;;;;;;;8.48;80.45;99977.77;105465;1297;74307;-71
2022/10/14 01:45:51;;;;;;;24.00;10.50;;;;;;;8.45;80.89;99976.54;105457;1288;68740;-71
2022/10/14 01:48:45;;;;;;;19.30;9.80;;;;;;;8.42;81.05;99974.43;105476;1297;72672;-71
2022/10/14 01:51:49;;;;;;;24.60;10.40;;;;;;;8.39;81.46;99969.92;105381;1297;57206;-72
2022/10/14 01:54:40;;;;;;;26.80;11.30;;;;;;;8.34;81.02;99966.51;105333;1300;61587;-71
2022/10/14 01:57:34;;;;;;;27.20;12.10;;;;;;;8.31;81.45;99963.88;105371;1292;74012;-71
2022/10/14 02:00:21;;;;;;;20.80;9.90;;;;;;;8.28;81.92;99967.60;105347;1299;67824;-72
2022/10/14 02:03:12;;;;;;;24.10;11.60;;;;;;;8.26;82.01;99965.11;105495;1297;72812;-72
2022/10/14 02:06:05;;;;;;;23.10;11.30;;;;;;;8.27;81.95;99966.16;105446;1306;57821;-73
2022/10/14 02:09:14;;;;;;;17.20;10.00;;;;;;;8.26;82.38;99964.41;105810;1291;60347;-73
2022/10/14 02:12:11;;;;;;;23.90;10.80;;;;;;;8.28;82.75;99965.36;106096;1288;72740;-72
2022/10/14 02:15:48;;;;;;;25.50;11.30;;;;;;;8.30;82.39;99962.02;105940;1290;68703;-71
2022/10/14 02:18:55;;;;;;;21.80;11.00;;;;;;;8.32;82.58;99959.39;105906;1295;71325;-72
2022/10/14 02:21:50;;;;;;;22.80;11.60;;;;;;;8.32;82.38;99954.42;105984;1292;57331;-72
2022/10/14 02:24:52;;;;;;;25.70;12.20;;;;;;;8.32;82.45;99950.40;106023;1284;60136;-72
2022/10/14 02:27:43;;;;;;;25.40;12.20;;;;;;;8.30;82.15;99945.92;105881;1294;74247;-73
2022/10/14 02:30:40;;;;;;;22.60;11.00;;;;;;;8.29;82.03;99949.39;105989;1290;67937;-71
2022/10/14 02:33:36;;;;;;;25.00;12.10;;;;;;;8.27;82.16;99946.34;105891;1298;73587;-71
2022/10/14 02:36:28;;;;;;;21.60;11.10;;;;;;;8.27;82.50;99951.77;105810;1291;57831;-72
2022/10/14 02:39:26;;;;;;;20.40;10.90;;;;;;;8.28;82.66;99948.75;105906;1282;61150;-72
2022/10/14 02:42:16;;;;;;;20.20;9.40;;;;;;;8.28;82.91;99944.52;105824;1293;73871;-72
2022/10/14 02:45:06;;;;;;;19.50;9.90;;;;;;;8.29;82.98;99948.11;105985;1290;68243;-72
2022/10/14 02:47:55;;;;;;;23.10;10.90;;;;;;;8.32;82.69;99950.41;105902;1291;72675;-71
2022/10/14 02:50:42;;;;;;;25.30;12.70;;;;;;;8.36;82.60;99949.42;105961;1274;60630;-72
2022/10/14 02:53:30;;;;;;;23.40;11.60;;;;;;;8.41;82.15;99947.99;106016;1282;58990;-72
2022/10/14 02:56:18;;;;;;;20.00;11.00;;;;;;;8.45;82.20;99940.86;105943;1293;72928;-71
2022/10/14 02:59:06;;;;;;;21.30;10.90;;;;;;;8.48;82.50;99937.94;106022;1291;68810;-71
2022/10/14 03:01:54;;;;;;;25.40;12.40;;;;;;;8.51;82.40;99934.73;105901;1291;72659;-71
2022/10/14 03:04:42;;;;;;;24.10;11.20;;;;;;;8.54;82.28;99932.80;105928;1291;60371;-71
2022/10/14 03:07:30;;;;;;;24.90;11.80;;;;;;;8.56;82.14;99937.07;105906;1282;61490;-72
2022/10/14 03:10:21;;;;;;;23.60;11.40;;;;;;;8.58;82.03;99929.35;105939;1292;72511;-71
2022/10/14 03:13:09;;;;;;;24.70;11.70;;;;;;;8.60;82.02;99929.34;105902;1285;68725;-72
2022/10/14 03:16:00;;;;;;;24.60;12.10;;;;;;;8.62;82.16;99933.15;105966;1289;72138;-71
2022/10/14 03:18:48;;;;;;;23.90;11.50;;;;;;;8.62;81.89;99933.96;105947;1291;57792;-71
2022/10/14 03:21:41;;;;;;;22.90;12.10;;;;;;;8.63;81.74;99924.70;105942;1297;60082;-71
2022/10/14 03:24:33;;;;;;;27.40;12.20;;;;;;;8.64;81.77;99922.33;105956;1284;72974;-71
2022/10/14 03:27:36;;;;;;;26.50;12.50;;;;;;;8.66;81.68;99921.28;105997;1289;67813;-72
2022/10/14 03:30:27;;;;;;;21.80;11.90;;;;;;;8.67;81.81;99914.71;105961;1284;72686;-72
2022/10/14 03:33:19;;;;;;;23.10;12.40;;;;;;;8.65;81.44;99912.05;106017;1289;57241;-72
2022/10/14 03:36:17;;;;;;;26.30;13.30;;;;;;;8.59;81.58;99904.69;106102;1284;58925;-72
2022/10/14 03:39:10;;;;;;;25.00;11.90;;;;;;;8.52;81.74;99900.77;106017;1290;72971;-72
2022/10/14 03:42:04;;;;;;;27.00;13.00;;;;;;;8.46;82.21;99898.69;105968;1290;66470;-71
2022/10/14 03:44:58;;;;;;;25.30;12.10;;;;;;;8.39;82.64;99900.23;105227;1291;1002283;-71
2022/10/14 03:47:48;;;;;;;22.90;11.50;;;;;;;8.34;82.39;99902.52;105949;1291;57802;-72
2022/10/14 03:50:36;;;;;;;23.30;12.90;;;;;;;8.27;83.36;99900.52;105982;1291;59953;-71
2022/10/14 03:53:25;;;;;;;23.60;12.60;;;;;;;8.21;83.45;99902.72;105942;1291;74116;-71
2022/10/14 03:56:14;;;;;;;26.90;13.30;;;;;;;8.16;83.80;99905.48;105926;1291;68640;-71
2022/10/14 03:59:05;;;;;;;23.60;12.00;;;;;;;8.12;83.96;99904.95;105951;1297;73687;-72
2022/10/14 04:01:52;;;;;;;27.30;13.50;;;;;;;8.08;84.12;99909.14;106048;1292;60371;-72
2022/10/14 04:04:43;;;;;;;25.80;13.00;;;;;;;8.04;84.24;99907.66;105857;1292;61232;-71
2022/10/14 04:07:32;;;;;;;25.90;12.70;;;;;;;8.00;84.70;99911.91;105917;1291;71629;-72
2022/10/14 04:10:20;;;;;;;25.60;13.50;;;;;;;7.97;84.22;99915.14;105927;1286;67828;-71
2022/10/14 04:13:10;;;;;;;31.70;11.90;;;;;;;7.94;84.36;99911.83;105899;1284;72374;-73
2022/10/14 04:16:23;;;;;;;25.10;13.10;;;;;;;7.87;85.52;99905.77;105971;1291;58218;-72
2022/10/14 04:19:20;;;;;;;25.70;12.50;;;;;;;7.81;85.95;99901.93;105949;1288;60060;-72
2022/10/14 04:22:09;;;;;;;23.20;11.60;;;;;;;7.77;86.73;99900.84;105899;1291;71591;-72
2022/10/14 04:24:56;;;;;;;23.20;11.10;;;;;;;7.73;86.88;99893.34;106048;1288;68880;-71
2022/10/14 04:27:45;;;;;;;25.50;12.70;;;;;;;7.68;86.82;99890.48;105911;1288;72492;-72
2022/10/14 04:30:32;;;;;;;24.80;12.30;;;;;;;7.63;87.13;99887.09;105921;1291;58250;-71
2022/10/14 04:33:20;;;;;;;24.40;11.90;;;;;;;7.59;87.36;99890.08;105913;1290;61339;-72
2022/10/14 04:36:10;;;;;;;25.00;13.60;;;;;;;7.53;87.90;99892.05;105927;1291;71673;-71
2022/10/14 04:38:59;;;;;;;30.00;12.50;;;;;;;7.48;88.14;99890.59;105978;1291;68957;-73
2022/10/14 04:41:47;;;;;;;23.00;11.00;;;;;;;7.44;88.86;99893.70;105948;1288;73811;-74
2022/10/14 04:44:37;;;;;;;22.70;11.70;;;;;;;7.39;89.14;99884.86;105923;1290;59069;-72
2022/10/14 04:47:25;;;;;;;23.40;12.10;;;;;;;7.35;89.31;99890.60;105933;1291;58890;-73
2022/10/14 04:50:17;;;;;;;27.20;13.30;;;;;;;7.31;89.79;99888.86;105923;1283;74099;-73
2022/10/14 04:53:25;;;;;;;26.40;11.70;;;;;;;7.30;90.06;99889.85;106050;1289;66205;-73
2022/10/14 04:56:20;;;;;;;25.80;13.80;;;;;;;7.29;90.44;99891.48;105935;1284;72794;-75
2022/10/14 04:59:14;;;;;;;24.20;11.90;;;;;;;7.31;90.40;99891.73;105910;1285;58155;-74
2022/10/14 05:02:13;;;;;;;23.70;12.80;;;;;;;7.31;90.56;99890.29;105930;1291;59217;-73
2022/10/14 05:05:07;;;;;;;27.40;13.40;;;;;;;7.33;90.57;99883.48;105934;1286;70558;-72
2022/10/14 05:07:57;;;;;;;25.40;13.30;;;;;;;7.32;90.51;99886.19;105930;1286;68597;-73
2022/10/14 05:10:51;;;;;;;29.10;13.30;;;;;;;7.32;90.34;99883.73;105940;1289;73646;-72
2022/10/14 05:13:52;;;;;;;25.90;12.40;;;;;;;7.31;90.58;99881.34;105877;1297;59523;-72
2022/10/14 05:16:41;;;;;;;26.00;13.50;;;;;;;7.30;90.41;99877.35;106050;1285;61270;-74
2022/10/14 05:19:29;;;;;;;23.40;13.30;;;;;;;7.29;90.36;99874.75;105976;1290;72794;-72
2022/10/14 05:22:17;;;;;;;26.20;13.90;;;;;;;7.28;90.35;99875.66;103044;1284;1002620;-71
2022/10/14 05:25:06;;;;;;;28.00;15.10;;;;;;;7.27;90.78;99875.73;105899;1291;74213;-73
2022/10/14 05:27:53;;;;;;;22.80;12.60;;;;;;;7.26;90.33;99876.15;105745;1291;222049;-72
2022/10/14 05:30:41;;;;;;;28.80;15.00;;;;;;;7.25;90.63;99876.77;105968;1290;60299;-72
2022/10/14 05:33:31;;;;;;;26.60;13.60;;;;;;;7.22;91.12;99881.59;105982;1291;74058;-74
2022/10/14 05:36:19;;;;;;;28.10;14.60;;;;;;;7.21;90.85;99880.08;105909;1283;67585;-73
2022/10/14 05:39:07;;;;;;;24.70;12.20;;;;;;;7.23;90.80;99886.63;105914;1285;72520;-74
2022/10/14 05:41:56;;;;;;;27.90;14.50;;;;;;;7.23;91.13;99885.72;105926;1292;57783;-73
2022/10/14 05:44:44;;;;;;;30.00;15.10;;;;;;;7.22;91.13;99886.14;105846;1291;61372;-73
2022/10/14 05:47:32;;;;;;;35.20;15.80;;;;;;;7.24;91.12;99889.19;105902;1292;72089;-74
2022/10/14 05:50:27;;;;;;;28.40;15.20;;;;;;;7.27;91.32;99895.31;105999;1282;66991;-74
2022/10/14 05:53:17;;;;;;;30.70;16.00;;;;;;;7.33;90.62;99896.01;105897;1298;73844;-73
2022/10/14 05:56:09;;;;;;;33.80;15.90;;;;;;;7.39;90.40;99900.00;105911;1291;59657;-73
2022/10/14 05:58:58;;;;;;;31.70;14.60;;;;;;;7.44;90.21;99898.09;105918;1294;60297;-73
2022/10/14 06:01:49;;;;;;;28.10;13.90;;;;;;;7.51;90.12;99898.17;105926;1292;72081;-72
2022/10/14 06:04:39;;;;;;;30.30;14.30;;;;;;;7.57;90.02;99898.70;105969;1292;67644;-72
2022/10/14 06:07:28;;;;;;;32.30;16.90;;;;;;;7.62;89.76;99890.52;105925;1292;71970;-71
2022/10/14 06:10:16;;;;;;;24.90;13.10;;;;;;;7.69;89.68;99885.46;106008;1289;58199;-71
2022/10/14 06:13:04;;;;;;;34.00;17.40;;;;;;;7.75;89.14;99884.72;105904;1289;61376;-72
2022/10/14 06:15:53;;;;;;;40.60;18.40;;;;;;;7.79;88.84;99883.34;105890;1282;72868;-72
2022/10/14 06:18:41;;;;;;;30.50;16.50;;;;;;;7.88;88.42;99885.80;105922;1291;67669;-71
2022/10/14 06:21:29;;;;;;;29.50;16.30;;;;;;;7.96;87.96;99879.37;105937;1291;74744;-72
2022/10/14 06:24:17;;;;;;;29.40;15.40;;;;;;;8.09;87.75;99886.23;106048;1287;58756;-72
2022/10/14 06:27:04;;;;;;;30.80;15.40;;;;;;;8.29;86.98;99887.70;106049;1292;58911;-73
2022/10/14 06:29:52;;;;;;;32.40;16.10;;;;;;;8.43;86.04;99885.62;106058;1289;72813;-73
2022/10/14 06:32:40;;;;;;;31.90;15.10;;;;;;;8.57;85.43;99887.09;105905;1290;67728;-73
2022/10/14 06:35:28;;;;;;;27.00;14.40;;;;;;;8.72;84.66;99887.42;106025;1295;72714;-72
2022/10/14 06:38:16;;;;;;;30.70;13.80;;;;;;;8.87;84.07;99886.57;105922;1291;57868;-73
2022/10/14 06:41:04;;;;;;;29.40;15.30;;;;;;;8.96;83.30;99884.52;106029;1292;61382;-73
2022/10/14 06:43:54;;;;;;;29.30;15.50;;;;;;;9.06;82.59;99884.27;106067;1292;73025;-73
2022/10/14 06:46:42;;;;;;;33.00;16.30;;;;;;;9.24;82.30;99886.30;106060;1285;68816;-73
2022/10/14 06:49:30;;;;;;;33.20;16.30;;;;;;;9.50;81.30;99887.18;106024;1289;72581;-72
2022/10/14 06:52:18;;;;;;;34.30;18.90;;;;;;;9.92;79.61;99886.14;106027;1284;60777;-72
2022/10/14 06:55:06;;;;;;;37.80;18.10;;;;;;;10.37;77.34;99885.08;106060;1294;59248;-72
2022/10/14 06:57:54;;;;;;;32.30;17.60;;;;;;;11.21;75.47;99885.21;106040;1292;72393;-71
2022/10/14 07:00:42;;;;;;;31.10;16.20;;;;;;;12.33;72.97;99884.93;106077;1282;67906;-72
2022/10/14 07:03:38;;;;;;;39.80;18.30;;;;;;;13.30;67.36;99883.27;106015;1289;73462;-71
2022/10/14 07:06:27;;;;;;;46.80;17.60;;;;;;;14.01;64.16;99884.33;106020;1294;58727;-73
2022/10/14 07:09:14;;;;;;;37.20;16.30;;;;;;;14.11;63.17;99882.09;106069;1287;58635;-72
2022/10/14 07:12:02;;;;;;;42.50;18.80;;;;;;;14.03;63.83;99883.26;106069;1287;72151;-72
2022/10/14 07:14:50;;;;;;;34.00;16.10;;;;;;;14.76;61.16;99882.91;106070;1284;66931;-72
2022/10/14 07:17:38;;;;;;;31.90;16.80;;;;;;;14.63;59.26;99882.14;106041;1292;72329;-72
2022/10/14 07:20:26;;;;;;;43.10;18.90;;;;;;;14.55;59.97;99880.09;106038;1290;57627;-71
2022/10/14 07:23:14;;;;;;;38.00;16.90;;;;;;;14.68;60.46;99880.27;106031;1290;60245;-70
2022/10/14 07:26:02;;;;;;;39.10;18.30;;;;;;;14.94;58.99;99881.98;106029;1289;72815;-72
2022/10/14 07:28:50;;;;;;;32.40;16.90;;;;;;;15.97;58.13;99878.58;106051;1289;66445;-72
2022/10/14 07:31:38;;;;;;;37.50;18.60;;;;;;;16.94;54.86;99874.07;106042;1289;71287;-76
2022/10/14 07:34:26;;;;;;;30.60;16.50;;;;;;;17.86;52.47;99866.21;106010;1288;59177;-76
2022/10/14 07:37:14;;;;;;;32.80;18.00;;;;;;;18.23;50.45;99864.91;106078;1289;58702;-71
2022/10/14 07:40:03;;;;;;;33.60;17.90;;;;;;;18.99;49.69;99863.48;105932;1289;73039;-73
2022/10/14 07:42:50;;;;;;;33.40;16.90;;;;;;;19.34;46.77;99861.96;106043;1287;68877;-73
2022/10/14 07:45:43;;;;;;;35.70;17.10;;;;;;;18.77;48.02;99862.61;106051;1295;71326;-76
2022/10/14 07:48:32;;;;;;;31.80;17.50;;;;;;;18.15;49.12;99860.13;106046;1283;59088;-74
2022/10/14 07:51:41;;;;;;;33.40;17.60;;;;;;;18.17;49.71;99857.17;105976;1289;60363;-78
2022/10/14 07:54:29;;;;;;;33.40;18.30;;;;;;;17.81;49.86;99853.00;106057;1287;73008;-76
2022/10/14 07:57:17;;;;;;;32.60;17.30;;;;;;;17.12;51.26;99854.05;105961;1291;66614;-77
2022/10/14 08:00:09;;;;;;;30.70;17.20;;;;;;;16.53;52.59;99855.66;105902;1290;72354;-76
2022/10/14 08:03:00;;;;;;;28.50;17.90;;;;;;;16.21;53.94;99857.92;106059;1285;57224;-76
2022/10/14 08:05:49;;;;;;;35.60;19.30;;;;;;;16.13;54.68;99854.12;106053;1288;61568;-77
2022/10/14 08:08:38;;;;;;;28.00;16.70;;;;;;;16.47;54.61;99855.62;106069;1288;72827;-74
2022/10/14 08:11:28;;;;;;;32.90;17.10;;;;;;;17.01;52.86;99848.48;105944;1291;66647;-72
2022/10/14 08:14:16;;;;;;;27.00;16.60;;;;;;;17.94;51.23;99844.55;106045;1286;73480;-74
2022/10/14 08:17:03;;;;;;;25.30;15.80;;;;;;;19.09;47.74;99842.67;106062;1289;57628;-77
2022/10/14 08:19:51;;;;;;;25.70;15.20;;;;;;;19.72;46.22;99845.39;106116;1287;60030;-79
2022/10/14 08:22:40;;;;;;;33.60;16.20;;;;;;;20.26;44.52;99838.73;105922;1290;72953;-76
2022/10/14 08:25:28;;;;;;;28.70;16.20;;;;;;;21.14;43.02;99839.93;106071;1288;66827;-74
2022/10/14 08:28:16;;;;;;;26.80;16.00;;;;;;;21.83;42.31;99837.51;106057;1291;72480;-76
2022/10/14 08:31:04;;;;;;;25.90;15.60;;;;;;;22.65;40.11;99833.28;106082;1291;57281;-77
2022/10/14 08:33:52;;;;;;;28.60;16.10;;;;;;;23.12;38.43;99833.03;105936;1295;58664;-71
2022/10/14 08:36:40;;;;;;;26.70;16.90;;;;;;;23.38;37.50;99834.27;105945;1292;72076;-74
2022/10/14 08:39:28;;;;;;;29.80;15.50;;;;;;;23.53;38.02;99834.80;106053;1282;68758;-72
2022/10/14 08:42:51;;;;;;;26.00;15.70;;;;;;;23.93;36.65;99833.27;106046;1284;73699;-74
2022/10/14 08:45:48;;;;;;;24.60;15.60;;;;;;;23.96;36.14;99829.79;106050;1292;59030;-76
2022/10/14 08:48:37;;;;;;;27.60;15.80;;;;;;;24.08;36.07;99828.13;105965;1288;59310;-73
2022/10/14 08:51:27;;;;;;;30.10;16.70;;;;;;;24.66;35.30;99821.65;106061;1283;72883;-73
2022/10/14 08:54:37;;;;;;;29.00;15.40;;;;;;;25.29;34.27;99824.98;105979;1288;67531;-72
2022/10/14 08:57:32;;;;;;;28.00;17.40;;;;;;;25.19;33.68;99824.25;105843;1294;74872;-75
2022/10/14 09:00:21;;;;;;;28.20;16.60;;;;;;;24.81;34.39;99823.02;106071;1289;57295;-73
2022/10/14 09:03:31;;;;;;;30.50;17.10;;;;;;;24.93;34.45;99826.36;106069;1289;58915;-72
2022/10/14 09:06:35;;;;;;;34.40;17.00;;;;;;;25.31;33.91;99825.45;105897;1291;72806;-74
2022/10/14 09:09:37;;;;;;;36.60;17.60;;;;;;;25.38;34.15;99826.86;105851;1295;68618;-75
2022/10/14 09:12:30;;;;;;;36.40;17.60;;;;;;;26.06;34.06;99822.75;105903;1292;73818;-74
2022/10/14 09:15:34;;;;;;;38.60;18.20;;;;;;;25.69;33.50;99818.88;105948;1284;58496;-71
2022/10/14 09:18:28;;;;;;;33.80;16.80;;;;;;;23.77;35.43;99821.05;105965;1291;58987;-75
2022/10/14 09:21:33;;;;;;;29.50;14.80;;;;;;;22.50;38.21;99819.35;105842;1295;73121;-73
2022/10/14 09:24:40;;;;;;;30.90;18.10;;;;;;;23.05;38.20;99817.14;105989;1291;66608;-73
2022/10/14 09:27:32;;;;;;;30.20;16.20;;;;;;;23.86;36.28;99817.20;105897;1284;72732;-73
2022/10/14 09:30:20;;;;;;;27.20;15.70;;;;;;;23.53;36.50;99820.13;106046;1284;57889;-74
2022/10/14 09:33:16;;;;;;;28.10;18.20;;;;;;;22.71;38.02;99819.13;106072;1292;59251;-72
2022/10/14 09:36:15;;;;;;;29.50;16.60;;;;;;;21.71;39.89;99821.70;106057;1288;72974;-76
2022/10/14 09:39:04;;;;;;;27.50;16.10;;;;;;;20.83;41.72;99819.73;105923;1291;69208;-76
2022/10/14 09:41:54;;;;;;;26.90;16.30;;;;;;;20.28;43.25;99821.68;106035;1289;73825;-74
2022/10/14 09:44:41;;;;;;;30.10;17.20;;;;;;;19.67;44.95;99824.42;105915;1297;57931;-74
2022/10/14 09:47:30;;;;;;;26.40;14.70;;;;;;;19.26;46.29;99822.58;105882;1287;60369;-73
2022/10/14 09:50:47;;;;;;;29.70;16.70;;;;;;;18.95;47.45;99822.06;105930;1297;72985;-71
2022/10/14 09:53:45;;;;;;;26.50;15.50;;;;;;;18.68;48.66;99821.80;106008;1295;67805;-71
2022/10/14 09:56:35;;;;;;;26.90;15.20;;;;;;;18.56;49.41;99824.02;105919;1292;73663;-72
2022/10/14 09:59:28;;;;;;;28.40;16.40;;;;;;;18.53;49.89;99820.14;105980;1292;57598;-72
2022/10/14 10:02:40;;;;;;;29.20;15.90;;;;;;;18.40;50.28;99820.53;105999;1290;61413;-73
2022/10/14 10:05:34;;;;;;;31.30;15.70;;;;;;;18.39;50.70;99818.11;105947;1290;72807;-71
2022/10/14 10:08:24;;;;;;;23.20;14.60;;;;;;;18.93;49.96;99817.33;105964;1291;68982;-72
2022/10/14 10:11:14;;;;;;;24.50;14.40;;;;;;;19.62;47.82;99817.11;106041;1287;72783;-72
2022/10/14 10:14:26;;;;;;;23.40;13.40;;;;;;;20.36;46.67;99807.09;106055;1287;57270;-71
2022/10/14 10:17:18;;;;;;;26.50;14.40;;;;;;;21.62;44.37;99807.90;106066;1291;60342;-72
2022/10/14 10:20:32;;;;;;;25.00;13.00;;;;;;;21.92;42.50;99811.30;105784;1290;72886;-72
2022/10/14 10:23:24;;;;;;;26.60;14.10;;;;;;;21.45;43.40;99817.67;106049;1292;67860;-72
2022/10/14 10:26:24;;;;;;;18.60;12.30;;;;;;;21.32;43.74;99811.50;106066;1289;73188;-72
2022/10/14 10:29:34;;;;;;;21.60;13.60;;;;;;;21.43;43.52;99812.11;105895;1300;57955;-72
2022/10/14 10:32:41;;;;;;;24.30;13.70;;;;;;;21.56;43.33;99815.23;105981;1290;61305;-71
2022/10/14 10:36:07;;;;;;;21.40;12.60;;;;;;;22.12;42.53;99808.32;106000;1290;71726;-72
2022/10/14 10:39:23;;;;;;;23.30;12.60;;;;;;;23.51;40.53;99806.13;106000;1287;66527;-71
2022/10/14 10:42:33;;;;;;;28.00;14.40;;;;;;;25.01;37.53;99799.25;105903;1298;73705;-72
2022/10/14 10:45:50;;;;;;;23.90;12.60;;;;;;;25.68;35.92;99799.04;105978;1292;57624;-71
2022/10/14 10:48:46;;;;;;;25.50;13.00;;;;;;;26.28;34.76;99800.99;105992;1292;60320;-71
2022/10/14 10:52:33;;;;;;;24.60;13.70;;;;;;;26.56;34.04;99799.36;105902;1292;74127;-71
2022/10/14 10:55:42;;;;;;;24.00;12.50;;;;;;;26.73;33.83;99792.52;105917;1292;68907;-70
2022/10/14 10:58:40;;;;;;;30.50;13.20;;;;;;;27.15;33.73;99798.85;105962;1292;73687;-71
2022/10/14 11:01:41;;;;;;;25.00;13.50;;;;;;;27.57;32.79;99797.95;105982;1291;57819;-72
2022/10/14 11:04:41;;;;;;;24.30;12.80;;;;;;;27.77;32.20;99795.82;106057;1292;60520;-72
2022/10/14 11:12:11;;;;;;;21.20;13.00;;;;;;;27.33;32.72;99789.40;105450;1297;67789;-72
2022/10/14 11:15:30;;;;;;;24.50;12.70;;;;;;;27.48;32.64;99785.22;105347;1304;73732;-71
2022/10/14 11:18:44;;;;;;;21.20;12.30;;;;;;;27.22;32.34;99785.89;105454;1298;59006;-72
2022/10/14 11:22:11;;;;;;;25.80;12.40;;;;;;;26.39;33.34;99786.83;105454;1299;61347;-71
2022/10/14 11:25:27;;;;;;;21.20;11.90;;;;;;;25.12;35.35;99784.39;105454;1297;73388;-71
2022/10/14 11:28:34;;;;;;;19.60;10.80;;;;;;;25.10;36.05;99782.69;105441;1297;67765;-71
2022/10/14 11:31:32;;;;;;;20.40;10.20;;;;;;;24.95;35.41;99783.64;105459;1298;73741;-71
2022/10/14 11:34:36;;;;;;;17.20;10.90;;;;;;;24.04;36.83;99787.11;105428;1297;57251;-71
2022/10/14 11:37:49;;;;;;;19.30;9.90;;;;;;;23.64;38.26;99786.95;105485;1298;60497;-71
2022/10/14 11:40:40;;;;;;;15.00;8.80;;;;;;;23.67;37.25;99786.48;105347;1296;73005;-70
2022/10/14 11:44:07;;;;;;;19.30;9.80;;;;;;;23.37;37.98;99786.02;105486;1302;68900;-71
2022/10/14 11:47:01;;;;;;;21.90;10.70;;;;;;;23.29;38.99;99788.44;105779;1288;72475;-72
2022/10/14 11:50:20;;;;;;;21.30;12.30;;;;;;;22.71;39.92;99783.58;106015;1284;58992;-71
2022/10/14 11:53:30;;;;;;;19.10;10.70;;;;;;;22.33;40.52;99775.96;106070;1284;60337;-72
2022/10/14 11:56:36;;;;;;;17.60;10.30;;;;;;;22.41;40.81;99773.95;105918;1289;72973;-72
2022/10/14 11:59:55;;;;;;;26.00;10.90;;;;;;;22.48;39.96;99770.04;106041;1289;66574;-71
2022/10/14 12:03:03;;;;;;;16.70;10.30;;;;;;;22.52;39.57;99764.33;105939;1287;73889;-73
2022/10/14 12:06:13;;;;;;;18.40;10.20;;;;;;;22.03;40.01;99764.68;106042;1289;57970;-73
2022/10/14 12:09:38;;;;;;;16.40;10.10;;;;;;;21.66;40.76;99763.68;106061;1287;61365;-73
2022/10/14 12:12:29;;;;;;;22.60;10.60;;;;;;;21.68;40.87;99758.30;105933;1287;72015;-72
2022/10/14 12:15:24;;;;;;;17.90;10.20;;;;;;;21.61;41.17;99758.17;105951;1288;66585;-73
2022/10/14 12:18:12;;;;;;;16.60;9.90;;;;;;;21.40;41.24;99756.39;106057;1290;72595;-72
2022/10/14 12:21:09;;;;;;;17.70;9.60;;;;;;;21.08;41.46;99755.81;106045;1289;57918;-74
2022/10/14 12:24:01;;;;;;;18.30;9.20;;;;;;;20.78;41.41;99750.39;105926;1288;61414;-73
2022/10/14 12:26:56;;;;;;;19.70;8.70;;;;;;;20.74;41.75;99748.15;106056;1292;71765;-72
2022/10/14 12:29:49;;;;;;;15.10;8.30;;;;;;;20.87;41.61;99747.48;105885;1297;67771;-76
2022/10/14 12:33:06;;;;;;;18.00;9.30;;;;;;;20.79;41.88;99748.61;105915;1289;72559;-75
2022/10/14 12:35:59;;;;;;;17.30;9.30;;;;;;;20.71;42.24;99747.22;105961;1288;59170;-75
2022/10/14 12:39:16;;;;;;;18.20;8.80;;;;;;;20.66;41.47;99746.27;106068;1284;58726;-80
2022/10/14 12:42:11;;;;;;;16.90;9.50;;;;;;;20.22;42.45;99744.05;105943;1292;71811;-78
2022/10/14 12:45:13;;;;;;;20.30;9.40;;;;;;;20.00;43.10;99742.37;106050;1284;68567;-74
2022/10/14 12:48:06;;;;;;;18.90;9.80;;;;;;;19.82;43.64;99741.21;106049;1292;71485;-76
2022/10/14 12:51:13;;;;;;;15.90;9.60;;;;;;;19.67;44.18;99740.87;106052;1290;57236;-75
2022/10/14 12:54:14;;;;;;;18.40;10.20;;;;;;;19.48;44.50;99741.05;105924;1291;60303;-75
2022/10/14 12:57:27;;;;;;;18.30;10.20;;;;;;;19.15;44.95;99745.99;106053;1289;72778;-75
2022/10/14 13:00:20;;;;;;;18.40;10.30;;;;;;;19.03;45.65;99742.20;105946;1288;68700;-74
2022/10/14 13:03:25;;;;;;;22.00;11.00;;;;;;;18.94;46.51;99741.90;106031;1289;73505;-75
2022/10/14 13:06:29;;;;;;;17.10;10.10;;;;;;;18.65;47.53;99740.35;105920;1292;58111;-75
2022/10/14 13:09:29;;;;;;;18.80;11.80;;;;;;;18.40;49.00;99738.94;106064;1287;61586;-75
2022/10/14 13:12:20;;;;;;;24.00;12.50;;;;;;;18.21;49.59;99736.05;105856;1290;73989;-74
2022/10/14 13:15:56;;;;;;;21.20;12.40;;;;;;;17.98;50.37;99735.33;106078;1289;66619;-74
2022/10/14 13:18:44;;;;;;;20.80;11.70;;;;;;;17.54;50.57;99732.14;106028;1295;73457;-74
2022/10/14 13:21:37;;;;;;;18.50;10.10;;;;;;;17.24;50.63;99736.41;106010;1284;58182;-74
2022/10/14 13:24:37;;;;;;;19.00;9.70;;;;;;;16.99;51.35;99736.11;106058;1291;60355;-76
2022/10/14 13:27:40;;;;;;;20.80;11.30;;;;;;;16.75;52.50;99736.92;105919;1291;71462;-74